sensor_id;sensor_type;location;lat;lon;timestamp;P1;durP1;ratioP1;P2;durP2;ratioP2
45236;SDS011;30973;51.442;3.580;2023-08-31T00:00:55;6.55;;;3.15;;
45236;SDS011;30973;51.442;3.580;2023-08-31T00:03:22;7.45;;;3.40;;
45236;SDS011;30973;51.442;3.580;2023-08-31T00:05:49;7.72;;;2.88;;
45236;SDS011;30973;51.442;3.580;2023-08-31T00:08:17;5.68;;;3.55;;
45236;SDS011;30973;51.442;3.580;2023-08-31T00:10:44;5.43;;;3.45;;
45236;SDS011;30973;51.442;3.580;2023-08-31T00:13:11;6.43;;;3.35;;
45236;SDS011;30973;51.442;3.580;2023-08-31T00:15:39;6.88;;;3.38;;
45236;SDS011;30973;51.442;3.580;2023-08-31T00:18:07;4.60;;;3.03;;
45236;SDS011;30973;51.442;3.580;2023-08-31T00:20:34;5.53;;;3.28;;
45236;SDS011;30973;51.442;3.580;2023-08-31T00:23:01;7.38;;;3.60;;
45236;SDS011;30973;51.442;3.580;2023-08-31T00:25:27;7.93;;;3.58;;
45236;SDS011;30973;51.442;3.580;2023-08-31T00:27:55;8.05;;;3.55;;
45236;SDS011;30973;51.442;3.580;2023-08-31T00:30:23;7.40;;;3.38;;
45236;SDS011;30973;51.442;3.580;2023-08-31T00:32:55;5.70;;;3.30;;
45236;SDS011;30973;51.442;3.580;2023-08-31T00:35:21;5.32;;;3.03;;
45236;SDS011;30973;51.442;3.580;2023-08-31T00:37:49;8.13;;;3.00;;
45236;SDS011;30973;51.442;3.580;2023-08-31T00:40:15;5.53;;;3.17;;
45236;SDS011;30973;51.442;3.580;2023-08-31T00:42:42;4.72;;;2.90;;
45236;SDS011;30973;51.442;3.580;2023-08-31T00:45:09;6.32;;;3.22;;
45236;SDS011;30973;51.442;3.580;2023-08-31T00:47:36;6.25;;;3.10;;
45236;SDS011;30973;51.442;3.580;2023-08-31T00:50:05;5.72;;;2.75;;
45236;SDS011;30973;51.442;3.580;2023-08-31T00:52:33;5.70;;;2.78;;
45236;SDS011;30973;51.442;3.580;2023-08-31T00:55:02;3.22;;;2.30;;
45236;SDS011;30973;51.442;3.580;2023-08-31T00:57:32;5.20;;;2.13;;
45236;SDS011;30973;51.442;3.580;2023-08-31T00:59:58;3.22;;;1.75;;
45236;SDS011;30973;51.442;3.580;2023-08-31T01:02:36;3.08;;;1.85;;
45236;SDS011;30973;51.442;3.580;2023-08-31T01:13:23;5.20;;;3.22;;
45236;SDS011;30973;51.442;3.580;2023-08-31T01:15:53;4.13;;;3.03;;
45236;SDS011;30973;51.442;3.580;2023-08-31T01:18:21;4.15;;;2.30;;
45236;SDS011;30973;51.442;3.580;2023-08-31T01:23:43;6.88;;;2.53;;
45236;SDS011;30973;51.442;3.580;2023-08-31T01:26:11;5.00;;;3.42;;
45236;SDS011;30973;51.442;3.580;2023-08-31T01:28:38;5.25;;;3.47;;
45236;SDS011;30973;51.442;3.580;2023-08-31T01:31:05;6.53;;;3.92;;
45236;SDS011;30973;51.442;3.580;2023-08-31T01:33:35;7.53;;;3.92;;
45236;SDS011;30973;51.442;3.580;2023-08-31T01:36:03;9.38;;;3.70;;
45236;SDS011;30973;51.442;3.580;2023-08-31T01:38:31;7.25;;;4.05;;
45236;SDS011;30973;51.442;3.580;2023-08-31T01:41:03;7.97;;;3.90;;
45236;SDS011;30973;51.442;3.580;2023-08-31T01:43:32;6.40;;;3.63;;
45236;SDS011;30973;51.442;3.580;2023-08-31T01:46:00;14.65;;;4.47;;
45236;SDS011;30973;51.442;3.580;2023-08-31T01:48:27;7.88;;;4.38;;
45236;SDS011;30973;51.442;3.580;2023-08-31T01:50:53;6.88;;;4.28;;
45236;SDS011;30973;51.442;3.580;2023-08-31T01:53:20;7.47;;;3.95;;
45236;SDS011;30973;51.442;3.580;2023-08-31T01:55:46;6.53;;;3.90;;
45236;SDS011;30973;51.442;3.580;2023-08-31T01:58:13;7.85;;;4.05;;
45236;SDS011;30973;51.442;3.580;2023-08-31T02:00:41;8.82;;;3.97;;
45236;SDS011;30973;51.442;3.580;2023-08-31T02:03:07;6.47;;;3.78;;
45236;SDS011;30973;51.442;3.580;2023-08-31T02:05:34;10.63;;;4.20;;
45236;SDS011;30973;51.442;3.580;2023-08-31T02:08:01;7.70;;;3.75;;
45236;SDS011;30973;51.442;3.580;2023-08-31T02:10:28;8.85;;;3.97;;
45236;SDS011;30973;51.442;3.580;2023-08-31T02:12:56;9.05;;;3.92;;
45236;SDS011;30973;51.442;3.580;2023-08-31T02:15:23;9.32;;;3.72;;
45236;SDS011;30973;51.442;3.580;2023-08-31T02:17:49;6.57;;;3.47;;
45236;SDS011;30973;51.442;3.580;2023-08-31T02:20:16;6.40;;;3.50;;
45236;SDS011;30973;51.442;3.580;2023-08-31T02:22:44;6.70;;;3.63;;
45236;SDS011;30973;51.442;3.580;2023-08-31T02:25:10;6.72;;;3.75;;
45236;SDS011;30973;51.442;3.580;2023-08-31T02:27:37;5.93;;;3.65;;
45236;SDS011;30973;51.442;3.580;2023-08-31T02:30:04;5.65;;;3.33;;
45236;SDS011;30973;51.442;3.580;2023-08-31T02:32:33;5.55;;;3.67;;
45236;SDS011;30973;51.442;3.580;2023-08-31T02:34:59;5.72;;;3.60;;
45236;SDS011;30973;51.442;3.580;2023-08-31T02:37:26;6.82;;;3.63;;
45236;SDS011;30973;51.442;3.580;2023-08-31T02:39:53;5.15;;;3.28;;
45236;SDS011;30973;51.442;3.580;2023-08-31T02:42:19;5.70;;;3.47;;
45236;SDS011;30973;51.442;3.580;2023-08-31T02:44:46;7.22;;;3.22;;
45236;SDS011;30973;51.442;3.580;2023-08-31T02:47:12;7.63;;;3.72;;
45236;SDS011;30973;51.442;3.580;2023-08-31T02:49:39;5.28;;;3.70;;
45236;SDS011;30973;51.442;3.580;2023-08-31T02:52:06;7.30;;;3.53;;
45236;SDS011;30973;51.442;3.580;2023-08-31T02:54:32;7.10;;;3.53;;
45236;SDS011;30973;51.442;3.580;2023-08-31T02:56:59;8.38;;;3.42;;
45236;SDS011;30973;51.442;3.580;2023-08-31T02:59:27;5.65;;;3.35;;
45236;SDS011;30973;51.442;3.580;2023-08-31T03:01:55;9.23;;;3.47;;
45236;SDS011;30973;51.442;3.580;2023-08-31T03:04:22;5.88;;;3.53;;
45236;SDS011;30973;51.442;3.580;2023-08-31T03:06:48;5.57;;;3.60;;
45236;SDS011;30973;51.442;3.580;2023-08-31T03:09:15;5.38;;;3.47;;
45236;SDS011;30973;51.442;3.580;2023-08-31T03:11:42;7.72;;;4.00;;
45236;SDS011;30973;51.442;3.580;2023-08-31T03:14:09;5.75;;;4.10;;
45236;SDS011;30973;51.442;3.580;2023-08-31T03:16:36;6.75;;;3.90;;
45236;SDS011;30973;51.442;3.580;2023-08-31T03:19:03;8.10;;;3.83;;
45236;SDS011;30973;51.442;3.580;2023-08-31T03:21:30;5.15;;;3.63;;
45236;SDS011;30973;51.442;3.580;2023-08-31T03:23:59;6.47;;;3.58;;
45236;SDS011;30973;51.442;3.580;2023-08-31T03:26:25;6.68;;;3.72;;
45236;SDS011;30973;51.442;3.580;2023-08-31T03:28:52;5.88;;;3.45;;
45236;SDS011;30973;51.442;3.580;2023-08-31T03:31:19;7.38;;;4.13;;
45236;SDS011;30973;51.442;3.580;2023-08-31T03:33:46;6.75;;;4.40;;
45236;SDS011;30973;51.442;3.580;2023-08-31T03:36:12;8.15;;;3.90;;
45236;SDS011;30973;51.442;3.580;2023-08-31T03:38:39;8.43;;;5.20;;
45236;SDS011;30973;51.442;3.580;2023-08-31T03:41:07;8.40;;;4.15;;
45236;SDS011;30973;51.442;3.580;2023-08-31T03:43:33;8.43;;;4.55;;
45236;SDS011;30973;51.442;3.580;2023-08-31T03:46:00;7.63;;;4.38;;
45236;SDS011;30973;51.442;3.580;2023-08-31T03:48:27;6.60;;;4.03;;
45236;SDS011;30973;51.442;3.580;2023-08-31T03:50:54;7.10;;;3.80;;
45236;SDS011;30973;51.442;3.580;2023-08-31T03:53:21;6.78;;;3.80;;
45236;SDS011;30973;51.442;3.580;2023-08-31T03:55:51;9.75;;;4.50;;
45236;SDS011;30973;51.442;3.580;2023-08-31T03:58:18;8.82;;;3.95;;
45236;SDS011;30973;51.442;3.580;2023-08-31T04:00:49;8.55;;;5.00;;
45236;SDS011;30973;51.442;3.580;2023-08-31T04:03:17;9.13;;;4.05;;
45236;SDS011;30973;51.442;3.580;2023-08-31T04:05:44;7.85;;;4.05;;
45236;SDS011;30973;51.442;3.580;2023-08-31T04:08:11;8.52;;;4.43;;
45236;SDS011;30973;51.442;3.580;2023-08-31T04:10:38;8.07;;;4.13;;
45236;SDS011;30973;51.442;3.580;2023-08-31T04:13:04;7.55;;;3.95;;
45236;SDS011;30973;51.442;3.580;2023-08-31T04:15:31;5.72;;;3.63;;
45236;SDS011;30973;51.442;3.580;2023-08-31T04:17:58;9.02;;;3.78;;
45236;SDS011;30973;51.442;3.580;2023-08-31T04:20:25;7.57;;;4.50;;
45236;SDS011;30973;51.442;3.580;2023-08-31T04:22:51;7.65;;;4.40;;
45236;SDS011;30973;51.442;3.580;2023-08-31T04:25:18;7.40;;;3.97;;
45236;SDS011;30973;51.442;3.580;2023-08-31T04:27:45;7.40;;;4.20;;
45236;SDS011;30973;51.442;3.580;2023-08-31T04:30:11;7.07;;;3.75;;
45236;SDS011;30973;51.442;3.580;2023-08-31T04:32:38;9.30;;;4.25;;
45236;SDS011;30973;51.442;3.580;2023-08-31T04:35:05;6.93;;;3.90;;
45236;SDS011;30973;51.442;3.580;2023-08-31T04:37:32;7.20;;;3.75;;
45236;SDS011;30973;51.442;3.580;2023-08-31T04:39:59;9.63;;;4.38;;
45236;SDS011;30973;51.442;3.580;2023-08-31T04:42:25;9.63;;;4.03;;
45236;SDS011;30973;51.442;3.580;2023-08-31T04:44:52;7.70;;;4.28;;
45236;SDS011;30973;51.442;3.580;2023-08-31T04:47:18;5.03;;;4.18;;
45236;SDS011;30973;51.442;3.580;2023-08-31T04:49:45;7.10;;;4.47;;
45236;SDS011;30973;51.442;3.580;2023-08-31T04:52:11;9.18;;;4.50;;
45236;SDS011;30973;51.442;3.580;2023-08-31T04:54:38;8.85;;;4.22;;
45236;SDS011;30973;51.442;3.580;2023-08-31T04:57:04;9.40;;;4.60;;
45236;SDS011;30973;51.442;3.580;2023-08-31T04:59:33;8.48;;;5.47;;
45236;SDS011;30973;51.442;3.580;2023-08-31T05:02:00;10.57;;;4.70;;
45236;SDS011;30973;51.442;3.580;2023-08-31T05:04:26;6.57;;;4.82;;
45236;SDS011;30973;51.442;3.580;2023-08-31T05:06:55;10.90;;;4.55;;
45236;SDS011;30973;51.442;3.580;2023-08-31T05:09:21;6.43;;;4.18;;
45236;SDS011;30973;51.442;3.580;2023-08-31T05:11:49;10.18;;;4.72;;
45236;SDS011;30973;51.442;3.580;2023-08-31T05:14:15;10.52;;;4.35;;
45236;SDS011;30973;51.442;3.580;2023-08-31T05:16:42;10.10;;;5.40;;
45236;SDS011;30973;51.442;3.580;2023-08-31T05:19:09;9.20;;;4.65;;
45236;SDS011;30973;51.442;3.580;2023-08-31T05:21:36;9.68;;;4.97;;
45236;SDS011;30973;51.442;3.580;2023-08-31T05:24:02;9.75;;;4.60;;
45236;SDS011;30973;51.442;3.580;2023-08-31T05:26:29;7.78;;;4.32;;
45236;SDS011;30973;51.442;3.580;2023-08-31T05:28:56;6.75;;;4.22;;
45236;SDS011;30973;51.442;3.580;2023-08-31T05:31:22;14.00;;;5.25;;
45236;SDS011;30973;51.442;3.580;2023-08-31T05:33:49;8.02;;;4.72;;
45236;SDS011;30973;51.442;3.580;2023-08-31T05:36:16;8.30;;;4.47;;
45236;SDS011;30973;51.442;3.580;2023-08-31T05:38:43;12.43;;;4.60;;
45236;SDS011;30973;51.442;3.580;2023-08-31T05:41:10;9.88;;;4.30;;
45236;SDS011;30973;51.442;3.580;2023-08-31T05:43:37;8.70;;;4.45;;
45236;SDS011;30973;51.442;3.580;2023-08-31T05:46:07;10.50;;;4.60;;
45236;SDS011;30973;51.442;3.580;2023-08-31T05:48:34;9.95;;;4.53;;
45236;SDS011;30973;51.442;3.580;2023-08-31T05:51:03;11.63;;;4.65;;
45236;SDS011;30973;51.442;3.580;2023-08-31T05:53:32;7.90;;;4.68;;
45236;SDS011;30973;51.442;3.580;2023-08-31T05:55:59;10.57;;;4.68;;
45236;SDS011;30973;51.442;3.580;2023-08-31T05:58:31;8.40;;;4.47;;
45236;SDS011;30973;51.442;3.580;2023-08-31T06:00:59;7.80;;;4.28;;
45236;SDS011;30973;51.442;3.580;2023-08-31T06:03:25;10.98;;;4.07;;
45236;SDS011;30973;51.442;3.580;2023-08-31T06:05:52;8.45;;;4.80;;
45236;SDS011;30973;51.442;3.580;2023-08-31T06:08:19;10.65;;;4.43;;
45236;SDS011;30973;51.442;3.580;2023-08-31T06:10:45;8.25;;;4.00;;
45236;SDS011;30973;51.442;3.580;2023-08-31T06:13:12;7.65;;;3.60;;
45236;SDS011;30973;51.442;3.580;2023-08-31T06:15:39;9.23;;;4.32;;
45236;SDS011;30973;51.442;3.580;2023-08-31T06:18:06;6.60;;;3.85;;
45236;SDS011;30973;51.442;3.580;2023-08-31T06:20:32;8.77;;;4.05;;
45236;SDS011;30973;51.442;3.580;2023-08-31T06:22:59;5.75;;;3.85;;
45236;SDS011;30973;51.442;3.580;2023-08-31T06:25:26;7.65;;;4.70;;
45236;SDS011;30973;51.442;3.580;2023-08-31T06:27:52;10.27;;;4.28;;
45236;SDS011;30973;51.442;3.580;2023-08-31T06:30:19;10.65;;;4.45;;
45236;SDS011;30973;51.442;3.580;2023-08-31T06:32:46;7.00;;;4.05;;
45236;SDS011;30973;51.442;3.580;2023-08-31T06:35:14;6.82;;;4.18;;
45236;SDS011;30973;51.442;3.580;2023-08-31T06:37:45;7.38;;;4.18;;
45236;SDS011;30973;51.442;3.580;2023-08-31T06:40:12;8.38;;;4.07;;
45236;SDS011;30973;51.442;3.580;2023-08-31T06:42:39;9.35;;;3.92;;
45236;SDS011;30973;51.442;3.580;2023-08-31T06:45:06;8.63;;;3.85;;
45236;SDS011;30973;51.442;3.580;2023-08-31T06:47:33;6.75;;;3.90;;
45236;SDS011;30973;51.442;3.580;2023-08-31T06:50:00;9.38;;;4.28;;
45236;SDS011;30973;51.442;3.580;2023-08-31T06:52:27;7.22;;;3.42;;
45236;SDS011;30973;51.442;3.580;2023-08-31T06:54:57;8.35;;;3.63;;
45236;SDS011;30973;51.442;3.580;2023-08-31T06:57:25;9.90;;;3.78;;
45236;SDS011;30973;51.442;3.580;2023-08-31T06:59:51;4.88;;;2.95;;
45236;SDS011;30973;51.442;3.580;2023-08-31T07:02:18;5.53;;;3.25;;
45236;SDS011;30973;51.442;3.580;2023-08-31T07:04:45;7.72;;;3.05;;
45236;SDS011;30973;51.442;3.580;2023-08-31T07:07:12;6.78;;;3.40;;
45236;SDS011;30973;51.442;3.580;2023-08-31T07:09:42;6.85;;;3.15;;
45236;SDS011;30973;51.442;3.580;2023-08-31T07:12:09;6.55;;;3.13;;
45236;SDS011;30973;51.442;3.580;2023-08-31T07:14:36;7.10;;;3.40;;
45236;SDS011;30973;51.442;3.580;2023-08-31T07:17:03;5.88;;;3.20;;
45236;SDS011;30973;51.442;3.580;2023-08-31T07:19:29;5.55;;;3.05;;
45236;SDS011;30973;51.442;3.580;2023-08-31T07:21:56;6.47;;;3.33;;
45236;SDS011;30973;51.442;3.580;2023-08-31T07:24:22;8.98;;;3.65;;
45236;SDS011;30973;51.442;3.580;2023-08-31T07:26:49;6.57;;;3.10;;
45236;SDS011;30973;51.442;3.580;2023-08-31T07:29:16;7.35;;;3.28;;
45236;SDS011;30973;51.442;3.580;2023-08-31T07:31:42;5.57;;;2.70;;
45236;SDS011;30973;51.442;3.580;2023-08-31T07:34:09;8.00;;;2.97;;
45236;SDS011;30973;51.442;3.580;2023-08-31T07:36:36;8.30;;;3.30;;
45236;SDS011;30973;51.442;3.580;2023-08-31T07:39:02;6.80;;;3.53;;
45236;SDS011;30973;51.442;3.580;2023-08-31T07:41:31;6.38;;;2.83;;
45236;SDS011;30973;51.442;3.580;2023-08-31T07:43:57;4.75;;;2.90;;
45236;SDS011;30973;51.442;3.580;2023-08-31T07:46:30;6.00;;;3.70;;
45236;SDS011;30973;51.442;3.580;2023-08-31T07:48:57;6.40;;;3.40;;
45236;SDS011;30973;51.442;3.580;2023-08-31T07:51:23;7.10;;;3.30;;
45236;SDS011;30973;51.442;3.580;2023-08-31T07:53:52;7.88;;;3.78;;
45236;SDS011;30973;51.442;3.580;2023-08-31T07:56:19;5.78;;;3.83;;
45236;SDS011;30973;51.442;3.580;2023-08-31T07:58:45;6.28;;;4.00;;
45236;SDS011;30973;51.442;3.580;2023-08-31T08:01:12;8.85;;;3.47;;
45236;SDS011;30973;51.442;3.580;2023-08-31T08:03:39;7.05;;;3.20;;
45236;SDS011;30973;51.442;3.580;2023-08-31T08:06:06;5.85;;;3.20;;
45236;SDS011;30973;51.442;3.580;2023-08-31T08:08:32;7.32;;;3.35;;
45236;SDS011;30973;51.442;3.580;2023-08-31T08:10:58;7.75;;;3.30;;
45236;SDS011;30973;51.442;3.580;2023-08-31T08:13:26;6.50;;;3.28;;
45236;SDS011;30973;51.442;3.580;2023-08-31T08:15:52;7.15;;;3.50;;
45236;SDS011;30973;51.442;3.580;2023-08-31T08:18:19;8.45;;;4.63;;
45236;SDS011;30973;51.442;3.580;2023-08-31T08:20:50;8.00;;;3.97;;
45236;SDS011;30973;51.442;3.580;2023-08-31T08:23:16;6.50;;;3.75;;
45236;SDS011;30973;51.442;3.580;2023-08-31T08:25:43;5.78;;;3.20;;
45236;SDS011;30973;51.442;3.580;2023-08-31T08:28:09;6.03;;;4.03;;
45236;SDS011;30973;51.442;3.580;2023-08-31T08:33:35;7.13;;;3.85;;
45236;SDS011;30973;51.442;3.580;2023-08-31T08:36:01;7.57;;;3.42;;
45236;SDS011;30973;51.442;3.580;2023-08-31T08:38:28;6.07;;;3.38;;
45236;SDS011;30973;51.442;3.580;2023-08-31T08:40:55;6.78;;;3.28;;
45236;SDS011;30973;51.442;3.580;2023-08-31T08:43:25;7.45;;;3.53;;
45236;SDS011;30973;51.442;3.580;2023-08-31T08:45:53;8.63;;;4.03;;
45236;SDS011;30973;51.442;3.580;2023-08-31T08:48:20;5.22;;;2.88;;
45236;SDS011;30973;51.442;3.580;2023-08-31T08:50:47;6.88;;;3.58;;
45236;SDS011;30973;51.442;3.580;2023-08-31T08:53:15;5.95;;;3.55;;
45236;SDS011;30973;51.442;3.580;2023-08-31T08:55:41;9.10;;;3.60;;
45236;SDS011;30973;51.442;3.580;2023-08-31T08:58:08;8.25;;;3.22;;
45236;SDS011;30973;51.442;3.580;2023-08-31T09:00:36;4.90;;;2.30;;
45236;SDS011;30973;51.442;3.580;2023-08-31T09:03:03;7.07;;;2.10;;
45236;SDS011;30973;51.442;3.580;2023-08-31T09:05:33;4.95;;;1.80;;
45236;SDS011;30973;51.442;3.580;2023-08-31T09:08:03;6.25;;;2.30;;
45236;SDS011;30973;51.442;3.580;2023-08-31T09:10:37;6.25;;;2.83;;
45236;SDS011;30973;51.442;3.580;2023-08-31T09:13:10;5.15;;;2.13;;
45236;SDS011;30973;51.442;3.580;2023-08-31T09:18:04;4.57;;;1.42;;
45236;SDS011;30973;51.442;3.580;2023-08-31T09:20:31;5.05;;;1.95;;
45236;SDS011;30973;51.442;3.580;2023-08-31T09:22:57;5.30;;;2.00;;
45236;SDS011;30973;51.442;3.580;2023-08-31T09:25:24;6.45;;;2.25;;
45236;SDS011;30973;51.442;3.580;2023-08-31T09:27:51;5.10;;;2.20;;
45236;SDS011;30973;51.442;3.580;2023-08-31T09:30:18;5.78;;;2.20;;
45236;SDS011;30973;51.442;3.580;2023-08-31T09:32:51;6.00;;;2.42;;
45236;SDS011;30973;51.442;3.580;2023-08-31T09:35:17;6.70;;;2.10;;
45236;SDS011;30973;51.442;3.580;2023-08-31T09:37:55;4.40;;;2.05;;
45236;SDS011;30973;51.442;3.580;2023-08-31T09:40:22;7.65;;;2.00;;
45236;SDS011;30973;51.442;3.580;2023-08-31T09:42:52;5.88;;;2.15;;
45236;SDS011;30973;51.442;3.580;2023-08-31T09:45:31;5.22;;;2.45;;
45236;SDS011;30973;51.442;3.580;2023-08-31T09:48:11;5.35;;;1.95;;
45236;SDS011;30973;51.442;3.580;2023-08-31T09:50:40;6.60;;;2.30;;
45236;SDS011;30973;51.442;3.580;2023-08-31T09:53:09;5.10;;;2.03;;
45236;SDS011;30973;51.442;3.580;2023-08-31T09:55:38;6.70;;;1.95;;
45236;SDS011;30973;51.442;3.580;2023-08-31T09:58:05;5.75;;;2.55;;
45236;SDS011;30973;51.442;3.580;2023-08-31T10:00:41;4.68;;;1.80;;
45236;SDS011;30973;51.442;3.580;2023-08-31T10:03:08;6.35;;;2.45;;
45236;SDS011;30973;51.442;3.580;2023-08-31T10:05:35;5.93;;;3.15;;
45236;SDS011;30973;51.442;3.580;2023-08-31T10:08:02;7.25;;;2.85;;
45236;SDS011;30973;51.442;3.580;2023-08-31T10:10:28;9.07;;;3.35;;
45236;SDS011;30973;51.442;3.580;2023-08-31T10:12:56;7.18;;;2.70;;
45236;SDS011;30973;51.442;3.580;2023-08-31T10:15:24;7.43;;;2.42;;
45236;SDS011;30973;51.442;3.580;2023-08-31T10:17:52;8.10;;;2.90;;
45236;SDS011;30973;51.442;3.580;2023-08-31T10:20:19;7.88;;;3.08;;
45236;SDS011;30973;51.442;3.580;2023-08-31T10:22:46;7.25;;;2.45;;
45236;SDS011;30973;51.442;3.580;2023-08-31T10:25:12;4.65;;;2.50;;
45236;SDS011;30973;51.442;3.580;2023-08-31T10:27:39;9.43;;;2.47;;
45236;SDS011;30973;51.442;3.580;2023-08-31T10:35:50;6.30;;;2.25;;
45236;SDS011;30973;51.442;3.580;2023-08-31T10:38:23;6.50;;;2.08;;
45236;SDS011;30973;51.442;3.580;2023-08-31T10:46:18;6.55;;;2.22;;
45236;SDS011;30973;51.442;3.580;2023-08-31T10:51:17;6.10;;;2.63;;
45236;SDS011;30973;51.442;3.580;2023-08-31T10:53:47;5.35;;;2.13;;
45236;SDS011;30973;51.442;3.580;2023-08-31T10:56:17;5.47;;;1.98;;
45236;SDS011;30973;51.442;3.580;2023-08-31T10:59:05;4.65;;;2.17;;
45236;SDS011;30973;51.442;3.580;2023-08-31T11:04:16;7.07;;;2.10;;
45236;SDS011;30973;51.442;3.580;2023-08-31T11:06:43;4.63;;;1.63;;
45236;SDS011;30973;51.442;3.580;2023-08-31T11:09:17;3.67;;;1.60;;
45236;SDS011;30973;51.442;3.580;2023-08-31T11:11:44;6.22;;;1.85;;
45236;SDS011;30973;51.442;3.580;2023-08-31T11:14:11;5.38;;;1.85;;
45236;SDS011;30973;51.442;3.580;2023-08-31T11:16:38;3.90;;;1.55;;
45236;SDS011;30973;51.442;3.580;2023-08-31T11:19:05;3.97;;;1.92;;
45236;SDS011;30973;51.442;3.580;2023-08-31T11:21:31;6.93;;;2.00;;
45236;SDS011;30973;51.442;3.580;2023-08-31T11:23:58;2.90;;;1.42;;
45236;SDS011;30973;51.442;3.580;2023-08-31T11:26:26;4.43;;;1.90;;
45236;SDS011;30973;51.442;3.580;2023-08-31T11:28:55;7.25;;;2.13;;
45236;SDS011;30973;51.442;3.580;2023-08-31T11:31:25;6.78;;;1.80;;
45236;SDS011;30973;51.442;3.580;2023-08-31T11:33:51;6.18;;;2.17;;
45236;SDS011;30973;51.442;3.580;2023-08-31T11:36:18;4.03;;;1.67;;
45236;SDS011;30973;51.442;3.580;2023-08-31T11:38:44;4.65;;;1.85;;
45236;SDS011;30973;51.442;3.580;2023-08-31T11:41:11;6.32;;;1.60;;
45236;SDS011;30973;51.442;3.580;2023-08-31T11:43:38;3.70;;;1.70;;
45236;SDS011;30973;51.442;3.580;2023-08-31T11:46:05;3.92;;;1.58;;
45236;SDS011;30973;51.442;3.580;2023-08-31T11:48:32;4.82;;;1.90;;
45236;SDS011;30973;51.442;3.580;2023-08-31T11:50:59;5.20;;;1.70;;
45236;SDS011;30973;51.442;3.580;2023-08-31T11:53:26;5.32;;;1.83;;
45236;SDS011;30973;51.442;3.580;2023-08-31T11:55:53;5.15;;;1.67;;
45236;SDS011;30973;51.442;3.580;2023-08-31T11:58:20;3.85;;;1.80;;
45236;SDS011;30973;51.442;3.580;2023-08-31T12:01:08;6.68;;;1.98;;
45236;SDS011;30973;51.442;3.580;2023-08-31T12:03:43;4.13;;;1.67;;
45236;SDS011;30973;51.442;3.580;2023-08-31T12:06:16;4.65;;;1.50;;
45236;SDS011;30973;51.442;3.580;2023-08-31T12:08:44;5.25;;;1.90;;
45236;SDS011;30973;51.442;3.580;2023-08-31T12:11:11;5.47;;;1.88;;
45236;SDS011;30973;51.442;3.580;2023-08-31T12:13:38;4.68;;;2.03;;
45236;SDS011;30973;51.442;3.580;2023-08-31T12:16:10;5.03;;;2.00;;
45236;SDS011;30973;51.442;3.580;2023-08-31T12:18:37;7.18;;;2.00;;
45236;SDS011;30973;51.442;3.580;2023-08-31T12:21:04;4.82;;;1.77;;
45236;SDS011;30973;51.442;3.580;2023-08-31T12:23:32;4.25;;;2.00;;
45236;SDS011;30973;51.442;3.580;2023-08-31T12:25:59;5.07;;;1.80;;
45236;SDS011;30973;51.442;3.580;2023-08-31T12:28:25;6.35;;;1.95;;
45236;SDS011;30973;51.442;3.580;2023-08-31T12:30:52;5.47;;;2.00;;
45236;SDS011;30973;51.442;3.580;2023-08-31T12:33:20;4.68;;;1.95;;
45236;SDS011;30973;51.442;3.580;2023-08-31T12:35:48;4.47;;;1.70;;
45236;SDS011;30973;51.442;3.580;2023-08-31T12:38:15;3.97;;;1.85;;
45236;SDS011;30973;51.442;3.580;2023-08-31T12:40:41;5.90;;;1.90;;
45236;SDS011;30973;51.442;3.580;2023-08-31T12:43:08;3.83;;;1.90;;
45236;SDS011;30973;51.442;3.580;2023-08-31T12:45:36;5.38;;;1.70;;
45236;SDS011;30973;51.442;3.580;2023-08-31T12:48:04;4.50;;;2.10;;
45236;SDS011;30973;51.442;3.580;2023-08-31T12:50:31;5.57;;;2.30;;
45236;SDS011;30973;51.442;3.580;2023-08-31T12:52:58;5.07;;;2.25;;
45236;SDS011;30973;51.442;3.580;2023-08-31T12:55:25;4.53;;;1.85;;
45236;SDS011;30973;51.442;3.580;2023-08-31T12:57:51;4.97;;;2.00;;
45236;SDS011;30973;51.442;3.580;2023-08-31T13:00:18;7.32;;;2.00;;
45236;SDS011;30973;51.442;3.580;2023-08-31T13:02:45;7.13;;;2.53;;
45236;SDS011;30973;51.442;3.580;2023-08-31T13:05:12;6.07;;;2.35;;
45236;SDS011;30973;51.442;3.580;2023-08-31T13:07:39;5.00;;;2.05;;
45236;SDS011;30973;51.442;3.580;2023-08-31T13:10:05;4.18;;;1.90;;
45236;SDS011;30973;51.442;3.580;2023-08-31T13:12:33;3.60;;;2.08;;
45236;SDS011;30973;51.442;3.580;2023-08-31T13:15:00;6.03;;;2.05;;
45236;SDS011;30973;51.442;3.580;2023-08-31T13:17:28;6.50;;;2.13;;
45236;SDS011;30973;51.442;3.580;2023-08-31T13:19:55;6.03;;;2.55;;
45236;SDS011;30973;51.442;3.580;2023-08-31T13:22:22;6.10;;;2.25;;
45236;SDS011;30973;51.442;3.580;2023-08-31T13:24:50;4.35;;;1.88;;
45236;SDS011;30973;51.442;3.580;2023-08-31T13:27:16;4.18;;;2.00;;
45236;SDS011;30973;51.442;3.580;2023-08-31T13:29:43;4.10;;;1.85;;
45236;SDS011;30973;51.442;3.580;2023-08-31T13:32:10;3.33;;;2.10;;
45236;SDS011;30973;51.442;3.580;2023-08-31T13:34:36;4.45;;;1.95;;
45236;SDS011;30973;51.442;3.580;2023-08-31T13:37:03;5.50;;;2.20;;
45236;SDS011;30973;51.442;3.580;2023-08-31T13:39:31;5.30;;;2.03;;
45236;SDS011;30973;51.442;3.580;2023-08-31T13:41:57;5.50;;;2.30;;
45236;SDS011;30973;51.442;3.580;2023-08-31T13:44:24;4.90;;;2.10;;
45236;SDS011;30973;51.442;3.580;2023-08-31T13:46:51;4.75;;;1.83;;
45236;SDS011;30973;51.442;3.580;2023-08-31T13:49:18;5.97;;;2.33;;
45236;SDS011;30973;51.442;3.580;2023-08-31T13:51:44;7.00;;;2.53;;
45236;SDS011;30973;51.442;3.580;2023-08-31T13:54:12;6.10;;;1.80;;
45236;SDS011;30973;51.442;3.580;2023-08-31T13:56:38;3.08;;;1.80;;
45236;SDS011;30973;51.442;3.580;2023-08-31T13:59:05;7.60;;;2.42;;
45236;SDS011;30973;51.442;3.580;2023-08-31T14:01:31;7.60;;;2.30;;
45236;SDS011;30973;51.442;3.580;2023-08-31T14:03:58;4.65;;;2.20;;
45236;SDS011;30973;51.442;3.580;2023-08-31T14:06:25;4.68;;;2.45;;
45236;SDS011;30973;51.442;3.580;2023-08-31T14:08:52;2.90;;;1.95;;
45236;SDS011;30973;51.442;3.580;2023-08-31T14:11:19;3.38;;;1.92;;
45236;SDS011;30973;51.442;3.580;2023-08-31T14:13:46;6.30;;;2.13;;
45236;SDS011;30973;51.442;3.580;2023-08-31T14:16:13;6.57;;;2.33;;
45236;SDS011;30973;51.442;3.580;2023-08-31T14:18:40;6.80;;;2.00;;
45236;SDS011;30973;51.442;3.580;2023-08-31T14:21:06;4.68;;;2.15;;
45236;SDS011;30973;51.442;3.580;2023-08-31T14:23:40;6.28;;;2.45;;
45236;SDS011;30973;51.442;3.580;2023-08-31T14:26:07;4.90;;;2.08;;
45236;SDS011;30973;51.442;3.580;2023-08-31T14:28:36;4.97;;;2.20;;
45236;SDS011;30973;51.442;3.580;2023-08-31T14:31:05;5.40;;;2.05;;
45236;SDS011;30973;51.442;3.580;2023-08-31T14:33:32;5.22;;;2.42;;
45236;SDS011;30973;51.442;3.580;2023-08-31T14:35:59;5.38;;;2.53;;
45236;SDS011;30973;51.442;3.580;2023-08-31T14:38:25;4.55;;;2.80;;
45236;SDS011;30973;51.442;3.580;2023-08-31T14:40:53;3.63;;;2.45;;
45236;SDS011;30973;51.442;3.580;2023-08-31T14:43:20;4.82;;;2.72;;
45236;SDS011;30973;51.442;3.580;2023-08-31T14:45:47;4.43;;;2.30;;
45236;SDS011;30973;51.442;3.580;2023-08-31T14:48:14;5.53;;;2.78;;
45236;SDS011;30973;51.442;3.580;2023-08-31T14:50:42;4.63;;;2.30;;
45236;SDS011;30973;51.442;3.580;2023-08-31T14:53:09;5.60;;;2.10;;
45236;SDS011;30973;51.442;3.580;2023-08-31T14:55:36;5.50;;;2.42;;
45236;SDS011;30973;51.442;3.580;2023-08-31T14:58:03;5.53;;;2.28;;
45236;SDS011;30973;51.442;3.580;2023-08-31T15:00:31;4.57;;;2.20;;
45236;SDS011;30973;51.442;3.580;2023-08-31T15:02:58;9.85;;;3.30;;
45236;SDS011;30973;51.442;3.580;2023-08-31T15:05:24;12.88;;;3.38;;
45236;SDS011;30973;51.442;3.580;2023-08-31T15:07:51;8.60;;;2.97;;
45236;SDS011;30973;51.442;3.580;2023-08-31T15:10:18;6.75;;;2.47;;
45236;SDS011;30973;51.442;3.580;2023-08-31T15:12:45;7.18;;;2.65;;
45236;SDS011;30973;51.442;3.580;2023-08-31T15:15:11;11.65;;;3.10;;
45236;SDS011;30973;51.442;3.580;2023-08-31T15:17:38;7.72;;;2.60;;
45236;SDS011;30973;51.442;3.580;2023-08-31T15:20:05;7.07;;;3.10;;
45236;SDS011;30973;51.442;3.580;2023-08-31T15:22:34;5.45;;;2.60;;